Time;durP1;ratioP1;P1;durP2;ratioP2;P2;SDS_P1;SDS_P2;PMS_P1;PMS_P2;Temp;Humidity;BMP_temperature;BMP_pressure;BME280_temperature;BME280_humidity;BME280_pressure;Samples;Min_cycle;Max_cycle;Signal;HPM_P1;HPM_P2
2022/09/22 00:01:08;;;;;;;;;;;282.00;2278.40;;;;;;5030045;28;19913;-63
2022/09/22 00:03:35;;;;;;;;;;;282.10;2278.40;;;;;;5029728;28;19909;-63
2022/09/22 00:06:27;;;;;;;;;;;282.00;2278.40;;;;;;5029888;28;19917;-63
2022/09/22 00:08:54;;;;;;;;;;;282.00;2278.40;;;;;;5025881;28;19916;-63
2022/09/22 00:11:24;;;;;;;;;;;282.10;2278.40;;;;;;5030194;28;19916;-62
2022/09/22 00:13:51;;;;;;;;;;;282.20;2278.40;;;;;;5029910;28;21116;-62
2022/09/22 00:16:18;;;;;;;;;;;282.20;2278.40;;;;;;5029839;28;20096;-62
2022/09/22 00:18:44;;;;;;;;;;;282.10;2278.40;;;;;;5029668;28;19952;-63
2022/09/22 00:21:12;;;;;;;;;;;282.10;2278.40;;;;;;5030316;28;19955;-63
2022/09/22 00:23:38;;;;;;;;;;;282.10;2278.40;;;;;;5030045;28;19997;-62
2022/09/22 00:26:09;;;;;;;;;;;282.00;2278.40;;;;;;5029766;28;19968;-73
2022/09/22 00:28:35;;;;;;;;;;;282.20;2278.40;;;;;;5029881;28;19909;-63
2022/09/22 00:31:08;;;;;;;;;;;282.10;2278.40;;;;;;5033582;28;19995;-62
2022/09/22 00:33:36;;;;;;;;;;;282.10;2278.40;;;;;;5033181;28;19913;-63
2022/09/22 00:36:02;;;;;;;;;;;282.10;2278.40;;;;;;5033300;28;20437;-63
2022/09/22 00:38:28;;;;;;;;;;;282.20;2278.40;;;;;;5033449;28;19956;-62
2022/09/22 00:40:54;;;;;;;;;;;282.10;2278.40;;;;;;5033196;28;19909;-62
2022/09/22 00:43:21;;;;;;;;;;;282.10;2278.40;;;;;;5033223;28;20363;-63
2022/09/22 00:46:09;;;;;;;;;;;282.20;2278.40;;;;;;5032756;28;19990;-63
2022/09/22 00:48:38;;;;;;;;;;;282.20;2278.40;;;;;;5032600;28;19914;-63
2022/09/22 00:51:05;;;;;;;;;;;282.20;2278.40;;;;;;5033002;28;19909;-63
2022/09/22 00:53:31;;;;;;;;;;;282.20;2278.40;;;;;;5033099;28;19916;-62
2022/09/22 00:56:00;;;;;;;;;;;282.20;2278.40;;;;;;5032844;28;19909;-62
2022/09/22 00:58:29;;;;;;;;;;;282.20;2278.40;;;;;;5032848;28;20365;-62
2022/09/22 01:00:54;;;;;;;;;;;282.20;2278.40;;;;;;5032705;28;19920;-63
2022/09/22 01:03:21;;;;;;;;;;;282.20;2278.40;;;;;;5033412;28;19909;-76
2022/09/22 01:05:48;;;;;;;;;;;282.20;2278.40;;;;;;5033218;28;19917;-76
2022/09/22 01:08:14;;;;;;;;;;;282.20;2278.40;;;;;;5033027;28;19915;-76
2022/09/22 01:10:40;;;;;;;;;;;282.30;2278.40;;;;;;5033019;28;20371;-76
2022/09/22 01:13:14;;;;;;;;;;;282.40;2278.40;;;;;;5032610;28;19910;-76
2022/09/22 01:16:03;;;;;;;;;;;282.40;2278.40;;;;;;5032892;28;19913;-74
2022/09/22 01:18:47;;;;;;;;;;;282.30;2278.40;;;;;;5021999;28;19988;-63
2022/09/22 01:21:18;;;;;;;;;;;282.20;2278.40;;;;;;5032212;28;19909;-63
2022/09/22 01:24:02;;;;;;;;;;;282.20;2278.40;;;;;;5032320;28;19916;-62
2022/09/22 01:26:39;;;;;;;;;;;282.30;2278.40;;;;;;5032316;28;19928;-62
2022/09/22 01:29:23;;;;;;;;;;;282.30;2278.40;;;;;;5032372;28;19909;-63
2022/09/22 01:31:49;;;;;;;;;;;282.40;2278.40;;;;;;5032802;28;20000;-74
2022/09/22 01:34:17;;;;;;;;;;;282.40;2278.40;;;;;;5033499;28;19982;-75
2022/09/22 01:36:48;;;;;;;;;;;282.40;2278.40;;;;;;5033598;28;19909;-72
2022/09/22 01:39:17;;;;;;;;;;;282.40;2278.40;;;;;;5033208;28;19975;-74
2022/09/22 01:41:50;;;;;;;;;;;282.40;2278.40;;;;;;5032761;28;19909;-63
2022/09/22 01:44:39;;;;;;;;;;;282.50;2278.40;;;;;;5032419;28;19935;-74
2022/09/22 01:47:18;;;;;;;;;;;282.40;2278.40;;;;;;4951815;29;19926;-63
2022/09/22 01:49:50;;;;;;;;;;;282.50;2278.40;;;;;;4951556;29;20001;-63
2022/09/22 01:52:18;;;;;;;;;;;282.50;2278.40;;;;;;4951700;29;19910;-63
2022/09/22 01:54:47;;;;;;;;;;;282.40;2278.40;;;;;;4951572;29;20007;-63
2022/09/22 01:57:16;;;;;;;;;;;282.50;2278.40;;;;;;4951461;29;20332;-64
2022/09/22 01:59:45;;;;;;;;;;;282.50;2278.40;;;;;;4951789;29;19917;-62
2022/09/22 02:02:26;;;;;;;;;;;307.20;2304.00;;;;;;4951748;29;20332;-63
2022/09/22 02:04:54;;;;;;;;;;;282.50;2278.40;;;;;;4951464;29;20041;-59
2022/09/22 02:07:25;;;;;;;;;;;282.50;2278.40;;;;;;4951489;29;19911;-60
2022/09/22 02:09:50;;;;;;;;;;;307.20;2304.00;;;;;;4951446;29;19921;-60
2022/09/22 02:12:18;;;;;;;;;;;282.50;2278.40;;;;;;4951277;29;19910;-71
2022/09/22 02:14:45;;;;;;;;;;;282.50;2278.40;;;;;;4950996;28;20289;-60
2022/09/22 02:17:12;;;;;;;;;;;282.50;2278.40;;;;;;4951368;29;19997;-59
2022/09/22 02:19:38;;;;;;;;;;;282.40;2278.40;;;;;;4951369;29;19910;-60
2022/09/22 02:22:05;;;;;;;;;;;282.20;2278.40;;;;;;4951093;29;19910;-71
2022/09/22 02:24:34;;;;;;;;;;;282.20;2278.40;;;;;;5005977;28;19952;-60
2022/09/22 02:27:25;;;;;;;;;;;282.20;2278.40;;;;;;5031407;28;19920;-60
2022/09/22 02:29:53;;;;;;;;;;;282.20;2278.40;;;;;;5021953;28;19916;-60
2022/09/22 02:32:20;;;;;;;;;;;282.10;2278.40;;;;;;5031076;28;19909;-62
2022/09/22 02:34:46;;;;;;;;;;;282.00;2278.40;;;;;;5030882;28;19913;-62
2022/09/22 02:37:21;;;;;;;;;;;281.90;2278.40;;;;;;5031248;28;20004;-62
2022/09/22 02:39:52;;;;;;;;;;;281.80;2278.40;;;;;;5031102;28;20001;-62
2022/09/22 02:42:17;;;;;;;;;;;281.80;2278.40;;;;;;5031109;28;19920;-64
2022/09/22 02:44:54;;;;;;;;;;;281.70;2278.40;;;;;;5030559;28;19916;-63
2022/09/22 02:47:35;;;;;;;;;;;281.70;2278.40;;;;;;5030931;28;19921;-62
2022/09/22 02:50:02;;;;;;;;;;;281.80;2278.40;;;;;;5030831;28;19909;-62
2022/09/22 02:52:27;;;;;;;;;;;281.70;2278.40;;;;;;5030130;28;19913;-64
2022/09/22 02:54:53;;;;;;;;;;;281.70;2278.40;;;;;;5030718;28;20314;-67
2022/09/22 02:57:19;;;;;;;;;;;281.80;2278.40;;;;;;5030799;28;19932;-61
2022/09/22 02:59:44;;;;;;;;;;;281.90;2278.40;;;;;;5030439;28;19909;-73
2022/09/22 03:02:10;;;;;;;;;;;281.90;2278.40;;;;;;5030933;28;19910;-73
2022/09/22 03:04:35;;;;;;;;;;;281.90;2278.40;;;;;;5030630;28;19909;-73
2022/09/22 03:07:01;;;;;;;;;;;282.00;2278.40;;;;;;5030963;28;19948;-74
2022/09/22 03:09:27;;;;;;;;;;;282.00;2278.40;;;;;;5013403;28;19919;-77
2022/09/22 03:11:52;;;;;;;;;;;282.00;2278.40;;;;;;5031315;28;19916;-69
2022/09/22 03:14:18;;;;;;;;;;;282.00;2278.40;;;;;;5030665;28;19921;-72
2022/09/22 03:16:43;;;;;;;;;;;282.00;2278.40;;;;;;5030454;28;19913;-71
2022/09/22 03:19:09;;;;;;;;;;;282.00;2278.40;;;;;;5030707;28;19909;-62
2022/09/22 03:21:34;;;;;;;;;;;282.00;2278.40;;;;;;5030463;28;19909;-63
2022/09/22 03:24:00;;;;;;;;;;;282.00;2278.40;;;;;;5030752;28;19909;-63
2022/09/22 03:26:25;;;;;;;;;;;282.00;2278.40;;;;;;5030150;28;19917;-62
2022/09/22 03:28:52;;;;;;;;;;;282.00;2278.40;;;;;;5030489;28;19909;-63
2022/09/22 03:31:17;;;;;;;;;;;282.00;2278.40;;;;;;5030552;28;19975;-63
2022/09/22 03:33:43;;;;;;;;;;;282.00;2278.40;;;;;;5030341;28;20383;-63
2022/09/22 03:36:08;;;;;;;;;;;282.00;2278.40;;;;;;5030374;28;19932;-75
2022/09/22 03:38:34;;;;;;;;;;;282.00;2278.40;;;;;;5030272;28;20345;-63
2022/09/22 03:41:00;;;;;;;;;;;282.00;2278.40;;;;;;5030385;28;19952;-63
2022/09/22 03:43:25;;;;;;;;;;;282.00;2278.40;;;;;;5030283;28;19910;-76
2022/09/22 03:45:54;;;;;;;;;;;282.00;2278.40;;;;;;5030018;28;19928;-63
2022/09/22 03:48:20;;;;;;;;;;;281.80;2278.40;;;;;;5030249;28;20367;-64
2022/09/22 03:50:46;;;;;;;;;;;281.90;2278.40;;;;;;5029712;28;20008;-76
2022/09/22 03:53:11;;;;;;;;;;;281.80;2278.40;;;;;;5030364;28;19930;-62
2022/09/22 03:55:37;;;;;;;;;;;281.80;2278.40;;;;;;5030192;28;19920;-76
2022/09/22 03:58:03;;;;;;;;;;;281.70;2278.40;;;;;;5030038;28;19920;-62
2022/09/22 04:00:28;;;;;;;;;;;281.70;2278.40;;;;;;5030247;28;19909;-63
2022/09/22 04:02:55;;;;;;;;;;;281.60;2278.40;;;;;;5030772;28;19909;-75
2022/09/22 04:05:20;;;;;;;;;;;281.60;2278.40;;;;;;5033742;28;19917;-63
2022/09/22 04:07:46;;;;;;;;;;;256.90;2252.80;;;;;;5033860;28;20377;-76
2022/09/22 04:10:12;;;;;;;;;;;256.90;2252.80;;;;;;5034183;28;20778;-61
2022/09/22 04:12:38;;;;;;;;;;;281.60;2278.40;;;;;;5033930;28;20000;-64
2022/09/22 04:15:03;;;;;;;;;;;256.80;2252.80;;;;;;5033519;28;20007;-69
2022/09/22 04:17:29;;;;;;;;;;;256.70;2252.80;;;;;;5033725;28;19973;-75
2022/09/22 04:19:55;;;;;;;;;;;256.80;2252.80;;;;;;5033595;28;19944;-75
2022/09/22 04:22:20;;;;;;;;;;;256.80;2252.80;;;;;;5033751;28;19910;-76
2022/09/22 04:24:46;;;;;;;;;;;256.90;2252.80;;;;;;5033631;28;19915;-75
2022/09/22 04:27:11;;;;;;;;;;;256.90;2252.80;;;;;;5033965;28;20355;-73
2022/09/22 04:29:37;;;;;;;;;;;256.80;2252.80;;;;;;5033729;28;20334;-71
2022/09/22 04:32:02;;;;;;;;;;;256.90;2252.80;;;;;;5034140;28;19913;-68
2022/09/22 04:34:28;;;;;;;;;;;256.90;2252.80;;;;;;5033445;28;19996;-70
2022/09/22 04:36:54;;;;;;;;;;;256.90;2252.80;;;;;;5033134;28;20360;-71
2022/09/22 04:39:19;;;;;;;;;;;256.90;2252.80;;;;;;5033394;28;20422;-70
2022/09/22 04:41:45;;;;;;;;;;;256.80;2252.80;;;;;;5034025;28;20376;-65
2022/09/22 04:44:10;;;;;;;;;;;256.80;2252.80;;;;;;5034356;28;19948;-71
2022/09/22 04:46:36;;;;;;;;;;;256.90;2252.80;;;;;;5033989;28;20490;-72
2022/09/22 04:49:02;;;;;;;;;;;256.80;2252.80;;;;;;5034494;28;19909;-75
2022/09/22 04:51:28;;;;;;;;;;;256.80;2252.80;;;;;;5034275;28;20373;-74
2022/09/22 04:53:53;;;;;;;;;;;256.90;2252.80;;;;;;5033937;28;19960;-73
2022/09/22 04:56:20;;;;;;;;;;;256.90;2252.80;;;;;;5033348;28;19913;-74
2022/09/22 04:58:45;;;;;;;;;;;281.60;2278.40;;;;;;5033402;28;19909;-75
2022/09/22 05:01:11;;;;;;;;;;;281.70;2278.40;;;;;;5033445;28;19915;-70
2022/09/22 05:03:37;;;;;;;;;;;256.90;2252.80;;;;;;5032844;28;20008;-72
2022/09/22 05:06:06;;;;;;;;;;;256.90;2252.80;;;;;;5032307;28;19921;-72
2022/09/22 05:08:32;;;;;;;;;;;281.70;2278.40;;;;;;5032885;28;20275;-73
2022/09/22 05:10:58;;;;;;;;;;;281.80;2278.40;;;;;;5032862;28;19913;-72
2022/09/22 05:13:24;;;;;;;;;;;282.00;2278.40;;;;;;5032488;28;19909;-70
2022/09/22 05:15:49;;;;;;;;;;;281.90;2278.40;;;;;;5031904;28;19917;-73
2022/09/22 05:18:15;;;;;;;;;;;281.70;2278.40;;;;;;5032498;28;19975;-61
2022/09/22 05:20:42;;;;;;;;;;;281.60;2278.40;;;;;;5032674;28;20003;-61
2022/09/22 05:23:07;;;;;;;;;;;281.60;2278.40;;;;;;5032594;28;20419;-61
2022/09/22 05:25:33;;;;;;;;;;;281.80;2278.40;;;;;;5032500;28;20012;-61
2022/09/22 05:27:59;;;;;;;;;;;282.00;2278.40;;;;;;5032622;28;19909;-61
2022/09/22 05:30:25;;;;;;;;;;;282.10;2278.40;;;;;;5032355;28;19952;-61
2022/09/22 05:32:50;;;;;;;;;;;282.20;2278.40;;;;;;5032569;28;20379;-61
2022/09/22 05:35:17;;;;;;;;;;;282.50;2278.40;;;;;;5032210;28;19909;-61
2022/09/22 05:37:43;;;;;;;;;;;307.30;2304.00;;;;;;5031970;28;19909;-61
2022/09/22 05:40:09;;;;;;;;;;;282.50;2278.40;;;;;;5032212;28;20370;-71
2022/09/22 05:42:42;;;;;;;;;;;282.50;2278.40;;;;;;5031921;28;19909;-60
2022/09/22 05:45:08;;;;;;;;;;;282.50;2278.40;;;;;;5032245;28;19929;-60
2022/09/22 05:47:33;;;;;;;;;;;307.20;2304.00;;;;;;5031874;28;19914;-61
2022/09/22 05:49:59;;;;;;;;;;;307.20;2304.00;;;;;;5032088;28;19955;-62
2022/09/22 05:52:24;;;;;;;;;;;307.30;2304.00;;;;;;5031677;28;19909;-61
2022/09/22 05:54:50;;;;;;;;;;;307.20;2304.00;;;;;;5031853;28;20048;-63
2022/09/22 05:57:15;;;;;;;;;;;307.20;2304.00;;;;;;5031805;28;19963;-62
2022/09/22 05:59:41;;;;;;;;;;;307.20;2304.00;;;;;;5031940;28;19909;-60
2022/09/22 06:02:10;;;;;;;;;;;307.20;2304.00;;;;;;5031667;28;19967;-60
2022/09/22 06:04:35;;;;;;;;;;;307.30;2304.00;;;;;;5031556;28;20279;-61
2022/09/22 06:07:01;;;;;;;;;;;307.40;2304.00;;;;;;5031623;28;19909;-60
2022/09/22 06:09:26;;;;;;;;;;;307.30;2304.00;;;;;;5031457;28;19910;-60
2022/09/22 06:11:52;;;;;;;;;;;307.20;2304.00;;;;;;5031709;28;20379;-61
2022/09/22 06:14:17;;;;;;;;;;;307.20;2304.00;;;;;;5031701;28;20468;-72
2022/09/22 06:16:43;;;;;;;;;;;307.20;2304.00;;;;;;5031483;28;19913;-61
2022/09/22 06:19:08;;;;;;;;;;;307.20;2304.00;;;;;;5031882;28;20323;-66
2022/09/22 06:21:34;;;;;;;;;;;307.20;2304.00;;;;;;5031186;28;19909;-66
2022/09/22 06:24:00;;;;;;;;;;;307.30;2304.00;;;;;;5031306;28;20043;-67
2022/09/22 06:26:25;;;;;;;;;;;307.40;2304.00;;;;;;5031140;28;19918;-69
2022/09/22 06:28:51;;;;;;;;;;;307.40;2304.00;;;;;;5031423;28;19916;-62
2022/09/22 06:31:16;;;;;;;;;;;307.50;2304.00;;;;;;5031197;28;19992;-63
2022/09/22 06:33:47;;;;;;;;;;;307.70;2304.00;;;;;;5031498;28;19909;-63
2022/09/22 06:36:16;;;;;;;;;;;307.90;2304.00;;;;;;5031106;28;19909;-63
2022/09/22 06:38:43;;;;;;;;;;;333.10;2329.60;;;;;;5031105;28;19917;-62
2022/09/22 06:41:08;;;;;;;;;;;333.10;2329.60;;;;;;5031112;28;20372;-63
2022/09/22 06:43:36;;;;;;;;;;;333.10;2329.60;;;;;;5030745;28;19916;-69
2022/09/22 06:46:02;;;;;;;;;;;333.30;2329.60;;;;;;5030864;28;20016;-63
2022/09/22 06:48:28;;;;;;;;;;;333.40;2329.60;;;;;;5030922;28;19960;-62
2022/09/22 06:50:54;;;;;;;;;;;333.50;2329.60;;;;;;5030454;28;19963;-64
2022/09/22 06:53:19;;;;;;;;;;;358.50;2329.60;;;;;;5030866;28;19909;-66
2022/09/22 06:55:45;;;;;;;;;;;358.40;2329.60;;;;;;5030387;28;20384;-70
2022/09/22 06:58:12;;;;;;;;;;;358.60;2329.60;;;;;;5030927;28;19909;-63
2022/09/22 07:00:40;;;;;;;;;;;358.80;2329.60;;;;;;5031025;28;19913;-62
2022/09/22 07:03:19;;;;;;;;;;;358.70;2329.60;;;;;;5030612;28;19909;-65
2022/09/22 07:05:57;;;;;;;;;;;358.90;2329.60;;;;;;5030449;28;19940;-60
2022/09/22 07:08:23;;;;;;;;;;;359.00;2329.60;;;;;;5030588;28;19910;-58
2022/09/22 07:10:52;;;;;;;;;;;359.10;2329.60;;;;;;5030809;28;19909;-59
2022/09/22 07:13:18;;;;;;;;;;;359.10;2329.60;;;;;;5030459;28;19917;-60
2022/09/22 07:15:44;;;;;;;;;;;359.20;2329.60;;;;;;5029870;28;19914;-59
2022/09/22 07:18:09;;;;;;;;;;;359.10;2329.60;;;;;;5030461;28;19917;-59
2022/09/22 07:20:35;;;;;;;;;;;359.30;2329.60;;;;;;5030328;28;20326;-60
2022/09/22 07:23:00;;;;;;;;;;;384.10;2329.60;;;;;;5030337;28;19917;-59
2022/09/22 07:25:27;;;;;;;;;;;384.10;2329.60;;;;;;5030271;28;19977;-60
2022/09/22 07:27:53;;;;;;;;;;;384.20;2329.60;;;;;;5012690;28;19968;-58
2022/09/22 07:30:21;;;;;;;;;;;384.60;2329.60;;;;;;5030560;28;19949;-59
2022/09/22 07:32:46;;;;;;;;;;;384.80;2329.60;;;;;;5030428;28;20290;-60
2022/09/22 07:35:12;;;;;;;;;;;384.90;2329.60;;;;;;5030465;28;20004;-60
2022/09/22 07:37:39;;;;;;;;;;;409.70;2355.20;;;;;;5030304;28;19959;-59
2022/09/22 07:40:06;;;;;;;;;;;384.90;2329.60;;;;;;5034328;28;19909;-60
2022/09/22 07:42:32;;;;;;;;;;;409.70;2355.20;;;;;;5034287;28;19909;-59
2022/09/22 07:45:13;;;;;;;;;;;409.80;2355.20;;;;;;5033841;28;19979;-59
2022/09/22 07:50:23;;;;;;;;;;;409.80;2355.20;;;;;;5034466;28;20311;-59
2022/09/22 07:52:52;;;;;;;;;;;410.10;2355.20;;;;;;5034308;28;19913;-59
2022/09/22 07:55:21;;;;;;;;;;;410.20;2355.20;;;;;;5034311;28;19913;-55
2022/09/22 07:57:53;;;;;;;;;;;410.20;2355.20;;;;;;5034065;28;19916;-57
2022/09/22 08:00:19;;;;;;;;;;;410.20;2355.20;;;;;;5034032;28;20374;-57
2022/09/22 08:02:49;;;;;;;;;;;410.40;2355.20;;;;;;5033674;28;19909;-57
2022/09/22 08:05:15;;;;;;;;;;;435.30;2355.20;;;;;;5033893;28;19917;-56
2022/09/22 08:07:42;;;;;;;;;;;435.30;2355.20;;;;;;5033816;28;19915;-57
2022/09/22 08:10:09;;;;;;;;;;;435.40;2355.20;;;;;;5033957;28;19920;-57
2022/09/22 08:12:36;;;;;;;;;;;435.40;2355.20;;;;;;5033660;28;20422;-57
2022/09/22 08:15:02;;;;;;;;;;;435.20;2355.20;;;;;;5033677;28;20275;-56
2022/09/22 08:17:27;;;;;;;;;;;435.30;2355.20;;;;;;5033596;28;19917;-57
2022/09/22 08:19:54;;;;;;;;;;;435.30;2355.20;;;;;;5033415;28;19977;-57
2022/09/22 08:22:20;;;;;;;;;;;435.30;2355.20;;;;;;5033635;28;19909;-57
2022/09/22 08:24:45;;;;;;;;;;;435.90;2355.20;;;;;;5033215;28;19913;-57
2022/09/22 08:27:11;;;;;;;;;;;487.00;2380.80;;;;;;5033712;28;19916;-57
2022/09/22 08:29:36;;;;;;;;;;;589.00;2073.60;;;;;;5033321;28;19910;-54
2022/09/22 08:32:02;;;;;;;;;;;589.00;1971.20;;;;;;5033471;28;20256;-54
2022/09/22 08:34:27;;;;;;;;;;;563.90;1945.60;;;;;;5033457;28;20367;-57
2022/09/22 08:36:54;;;;;;;;;;;563.50;1945.60;;;;;;5033133;28;20000;-57
2022/09/22 08:39:20;;;;;;;;;;;538.50;1945.60;;;;;;5033392;28;19918;-57
2022/09/22 08:41:48;;;;;;;;;;;538.40;1971.20;;;;;;5033262;28;20267;-57
2022/09/22 08:44:22;;;;;;;;;;;538.10;1971.20;;;;;;5033002;28;19913;-58
2022/09/22 08:46:48;;;;;;;;;;;537.80;2022.40;;;;;;5032932;28;19929;-57
2022/09/22 08:52:08;;;;;;;;;;;512.50;2048.00;;;;;;5033138;28;20366;-61
2022/09/22 08:54:34;;;;;;;;;;;512.60;2048.00;;;;;;5032989;28;20009;-59
2022/09/22 08:57:10;;;;;;;;;;;487.30;2099.20;;;;;;5033217;28;19921;-60
2022/09/22 08:59:54;;;;;;;;;;;487.30;2124.80;;;;;;5032718;28;20389;-60
2022/09/22 09:02:39;;;;;;;;;;;512.20;2124.80;;;;;;5032971;28;19915;-57
2022/09/22 09:05:23;;;;;;;;;;;487.20;2150.40;;;;;;5031226;28;19963;-58
2022/09/22 09:08:07;;;;;;;;;;;487.20;2150.40;;;;;;5028745;28;20382;-57
2022/09/22 09:10:52;;;;;;;;;;;487.30;2099.20;;;;;;5029312;28;19913;-57
2022/09/22 09:13:24;;;;;;;;;;;487.10;2150.40;;;;;;5030089;28;20287;-58
2022/09/22 09:15:55;;;;;;;;;;;487.00;2124.80;;;;;;5028786;28;19975;-57
2022/09/22 09:18:29;;;;;;;;;;;486.80;2124.80;;;;;;5031185;28;19913;-57
2022/09/22 09:20:55;;;;;;;;;;;486.50;2048.00;;;;;;5029546;28;20330;-56
2022/09/22 09:23:28;;;;;;;;;;;486.40;2073.60;;;;;;5031284;28;20315;-57
2022/09/22 09:25:54;;;;;;;;;;;486.40;2073.60;;;;;;5029023;28;20016;-55
2022/09/22 09:28:28;;;;;;;;;;;461.70;2073.60;;;;;;5031021;28;19955;-56
2022/09/22 09:31:03;;;;;;;;;;;461.70;2073.60;;;;;;5028652;28;19913;-57
2022/09/22 09:33:39;;;;;;;;;;;486.40;2099.20;;;;;;5030964;28;20358;-56
2022/09/22 09:36:12;;;;;;;;;;;486.50;2073.60;;;;;;5030515;28;19936;-56
2022/09/22 09:38:41;;;;;;;;;;;486.70;2176.00;;;;;;5029787;28;20000;-57
2022/09/22 09:41:16;;;;;;;;;;;486.70;2099.20;;;;;;5031989;28;20343;-57
2022/09/22 09:43:44;;;;;;;;;;;487.20;2022.40;;;;;;5032024;28;19967;-57
2022/09/22 09:46:10;;;;;;;;;;;512.30;1945.60;;;;;;5031980;28;19989;-57
2022/09/22 09:48:39;;;;;;;;;;;512.50;1945.60;;;;;;5031881;28;19909;-56
2022/09/22 09:51:09;;;;;;;;;;;512.60;1920.00;;;;;;5031384;28;19909;-57
2022/09/22 09:53:42;;;;;;;;;;;512.30;1945.60;;;;;;5031227;28;19909;-57
2022/09/22 09:56:28;;;;;;;;;;;512.20;1945.60;;;;;;5031677;28;19913;-57
2022/09/22 10:01:40;;;;;;;;;;;512.50;2022.40;;;;;;5032101;28;19963;-58
2022/09/22 10:04:16;;;;;;;;;;;512.20;2022.40;;;;;;5031620;28;19941;-57
2022/09/22 10:06:42;;;;;;;;;;;512.20;1945.60;;;;;;5031620;28;19917;-57
2022/09/22 10:09:08;;;;;;;;;;;512.20;1920.00;;;;;;5031617;28;20347;-57
2022/09/22 10:11:33;;;;;;;;;;;512.10;1920.00;;;;;;5031466;28;19944;-57
2022/09/22 10:13:59;;;;;;;;;;;512.30;1894.40;;;;;;5031796;28;20347;-57
2022/09/22 10:16:29;;;;;;;;;;;512.80;1868.80;;;;;;5031332;28;19914;-57
2022/09/22 10:18:57;;;;;;;;;;;512.90;1920.00;;;;;;5031293;28;19955;-58
2022/09/22 10:21:24;;;;;;;;;;;512.90;1894.40;;;;;;5031122;28;19932;-58
2022/09/22 10:23:50;;;;;;;;;;;512.70;1894.40;;;;;;5031381;28;20245;-57
2022/09/22 10:26:19;;;;;;;;;;;512.30;1894.40;;;;;;5031066;28;19924;-57
2022/09/22 10:28:49;;;;;;;;;;;512.20;1945.60;;;;;;5031049;28;19935;-58
2022/09/22 10:31:23;;;;;;;;;;;487.00;1920.00;;;;;;5031139;28;20279;-58
2022/09/22 10:33:56;;;;;;;;;;;486.60;1996.80;;;;;;5031080;28;19909;-57
2022/09/22 10:36:24;;;;;;;;;;;486.40;1996.80;;;;;;5031136;28;19909;-57
2022/09/22 10:38:50;;;;;;;;;;;461.40;2022.40;;;;;;5031051;28;19920;-58
2022/09/22 10:41:23;;;;;;;;;;;461.60;2022.40;;;;;;5030866;28;19909;-57
2022/09/22 10:44:04;;;;;;;;;;;461.50;2048.00;;;;;;5030841;28;20355;-57
2022/09/22 10:46:49;;;;;;;;;;;461.70;2022.40;;;;;;5030523;28;19925;-57
2022/09/22 10:49:20;;;;;;;;;;;486.50;1996.80;;;;;;5030648;28;19911;-57
2022/09/22 10:52:04;;;;;;;;;;;486.70;1971.20;;;;;;5030525;28;20256;-60
2022/09/22 10:54:56;;;;;;;;;;;486.50;1945.60;;;;;;5030812;28;19910;-60
2022/09/22 10:57:23;;;;;;;;;;;486.80;1971.20;;;;;;4999629;28;19981;-58
2022/09/22 10:59:58;;;;;;;;;;;486.50;1996.80;;;;;;5030635;28;19916;-57
2022/09/22 11:02:30;;;;;;;;;;;486.70;1996.80;;;;;;5030549;28;19916;-57
2022/09/22 11:05:16;;;;;;;;;;;486.80;1971.20;;;;;;5030302;28;19910;-60
2022/09/22 11:13:31;;;;;;;;;;;487.30;1920.00;;;;;;4950063;28;19932;-55
2022/09/22 11:16:06;;;;;;;;;;;487.30;1920.00;;;;;;4950212;29;19958;-57
2022/09/22 11:18:44;;;;;;;;;;;512.10;1920.00;;;;;;4950495;29;19939;-57
2022/09/22 11:21:12;;;;;;;;;;;487.10;1920.00;;;;;;4950510;29;19918;-56
2022/09/22 11:23:40;;;;;;;;;;;487.20;1945.60;;;;;;4950222;29;19914;-56
2022/09/22 11:26:06;;;;;;;;;;;487.10;1945.60;;;;;;4948079;29;20010;-60
2022/09/22 11:28:36;;;;;;;;;;;486.80;1920.00;;;;;;4948230;29;20051;-57
2022/09/22 11:31:01;;;;;;;;;;;486.70;1894.40;;;;;;4948378;29;19946;-58
2022/09/22 11:33:36;;;;;;;;;;;486.40;1945.60;;;;;;4948239;29;19985;-59
2022/09/22 11:36:20;;;;;;;;;;;486.40;1945.60;;;;;;4948458;29;19918;-56
2022/09/22 11:39:05;;;;;;;;;;;461.00;1996.80;;;;;;4947510;29;20501;-57
2022/09/22 11:41:38;;;;;;;;;;;461.20;1996.80;;;;;;4948437;29;19945;-58
2022/09/22 11:44:07;;;;;;;;;;;461.20;1996.80;;;;;;4963346;28;19920;-58
2022/09/22 11:46:48;;;;;;;;;;;461.60;2022.40;;;;;;5028600;28;19983;-57
2022/09/22 11:49:28;;;;;;;;;;;486.40;2048.00;;;;;;5028541;28;19933;-58
2022/09/22 11:52:09;;;;;;;;;;;486.50;1996.80;;;;;;5027831;28;19917;-58
2022/09/22 11:54:45;;;;;;;;;;;486.60;1920.00;;;;;;5028525;28;19935;-58
2022/09/22 11:57:12;;;;;;;;;;;486.50;1945.60;;;;;;5028734;28;19924;-57
2022/09/22 11:59:38;;;;;;;;;;;486.50;1920.00;;;;;;5028465;28;20007;-58
2022/09/22 12:02:13;;;;;;;;;;;461.40;2022.40;;;;;;5028454;28;20000;-58
2022/09/22 12:04:40;;;;;;;;;;;461.30;2048.00;;;;;;5028045;28;20284;-57
2022/09/22 12:07:32;;;;;;;;;;;460.90;2099.20;;;;;;5028052;28;19964;-56
2022/09/22 12:09:59;;;;;;;;;;;435.90;2099.20;;;;;;5005925;28;20303;-60
2022/09/22 12:12:27;;;;;;;;;;;460.80;2150.40;;;;;;5008764;28;19972;-57
2022/09/22 12:14:57;;;;;;;;;;;436.10;2073.60;;;;;;5008883;28;20372;-58
2022/09/22 12:17:31;;;;;;;;;;;436.10;2073.60;;;;;;5010626;28;20392;-57
2022/09/22 12:20:22;;;;;;;;;;;435.90;2099.20;;;;;;5010192;28;19917;-58
2022/09/22 12:22:59;;;;;;;;;;;436.10;2073.60;;;;;;5009966;28;20024;-57
2022/09/22 12:25:42;;;;;;;;;;;436.10;2099.20;;;;;;5012802;28;20364;-58
2022/09/22 12:28:14;;;;;;;;;;;435.80;2124.80;;;;;;5013797;28;20319;-57
2022/09/22 12:30:50;;;;;;;;;;;436.00;2124.80;;;;;;5013905;28;19910;-57
2022/09/22 12:33:15;;;;;;;;;;;436.00;2124.80;;;;;;5013559;28;19925;-57
2022/09/22 12:35:42;;;;;;;;;;;460.80;2150.40;;;;;;5013791;28;20451;-57
2022/09/22 12:38:11;;;;;;;;;;;460.80;2176.00;;;;;;5013793;28;19909;-57
2022/09/22 12:40:40;;;;;;;;;;;460.80;2176.00;;;;;;5013600;28;19951;-57
2022/09/22 12:43:12;;;;;;;;;;;460.80;2176.00;;;;;;5013422;28;19916;-57
2022/09/22 12:45:40;;;;;;;;;;;460.80;2176.00;;;;;;5012831;28;19929;-56
2022/09/22 12:48:08;;;;;;;;;;;460.80;2176.00;;;;;;5013384;28;19914;-57
2022/09/22 12:50:38;;;;;;;;;;;460.90;2124.80;;;;;;5012631;28;20443;-57
2022/09/22 12:53:24;;;;;;;;;;;461.20;2073.60;;;;;;5013173;28;20328;-57
2022/09/22 12:55:50;;;;;;;;;;;461.30;2022.40;;;;;;5012706;28;19909;-56
2022/09/22 12:58:22;;;;;;;;;;;461.40;2048.00;;;;;;5013115;28;19917;-57
2022/09/22 13:00:49;;;;;;;;;;;461.50;1996.80;;;;;;5012913;28;20375;-57
2022/09/22 13:03:24;;;;;;;;;;;461.50;1945.60;;;;;;5012919;28;19956;-58
2022/09/22 13:05:56;;;;;;;;;;;461.70;1996.80;;;;;;5012713;28;20008;-58
2022/09/22 13:08:22;;;;;;;;;;;461.70;1996.80;;;;;;5013140;28;19917;-56
2022/09/22 13:10:52;;;;;;;;;;;486.40;2048.00;;;;;;5012986;28;19913;-57
2022/09/22 13:13:22;;;;;;;;;;;486.40;2073.60;;;;;;5012938;28;19914;-57
2022/09/22 13:15:55;;;;;;;;;;;461.60;2073.60;;;;;;5012556;28;20012;-56
2022/09/22 13:18:32;;;;;;;;;;;461.40;2099.20;;;;;;5012879;28;19914;-57
2022/09/22 13:20:58;;;;;;;;;;;461.40;2124.80;;;;;;5012650;28;19916;-57
2022/09/22 13:23:24;;;;;;;;;;;461.50;2150.40;;;;;;5012382;28;19910;-58
2022/09/22 13:25:50;;;;;;;;;;;461.60;2150.40;;;;;;5012299;28;20394;-58
2022/09/22 13:28:16;;;;;;;;;;;461.70;2099.20;;;;;;5012518;28;19910;-57
2022/09/22 13:30:42;;;;;;;;;;;486.80;2099.20;;;;;;5012623;28;19910;-57
2022/09/22 13:33:21;;;;;;;;;;;487.00;2048.00;;;;;;5012314;28;19959;-57
2022/09/22 13:35:50;;;;;;;;;;;487.20;2099.20;;;;;;5011590;28;19923;-58
2022/09/22 13:38:16;;;;;;;;;;;487.30;2022.40;;;;;;5012298;28;19948;-57
2022/09/22 13:40:46;;;;;;;;;;;512.10;2048.00;;;;;;5012634;28;20275;-57
2022/09/22 13:43:19;;;;;;;;;;;512.20;1920.00;;;;;;5012339;28;19914;-55
2022/09/22 13:45:45;;;;;;;;;;;512.10;1868.80;;;;;;5011739;28;19949;-56
2022/09/22 13:48:13;;;;;;;;;;;487.30;1868.80;;;;;;5012409;28;19956;-56
2022/09/22 13:50:42;;;;;;;;;;;487.20;1920.00;;;;;;5012272;28;19975;-58
2022/09/22 13:53:08;;;;;;;;;;;512.10;1920.00;;;;;;5012031;28;19913;-58
2022/09/22 13:55:34;;;;;;;;;;;512.10;1920.00;;;;;;5011521;28;19956;-58
2022/09/22 13:58:01;;;;;;;;;;;512.10;1920.00;;;;;;5012173;28;19910;-58
2022/09/22 14:00:32;;;;;;;;;;;487.30;1920.00;;;;;;5012060;28;20012;-56
2022/09/22 14:03:00;;;;;;;;;;;487.20;1894.40;;;;;;5012016;28;19913;-57
2022/09/22 14:05:26;;;;;;;;;;;487.00;1894.40;;;;;;5011609;28;19920;-59
2022/09/22 14:07:53;;;;;;;;;;;486.80;1920.00;;;;;;5011789;28;19909;-57